Time;durP1;ratioP1;P1;durP2;ratioP2;P2;SDS_P1;SDS_P2;PMS_P1;PMS_P2;Temp;Humidity;BMP_temperature;BMP_pressure;BME280_temperature;BME280_humidity;BME280_pressure;Samples;Min_cycle;Max_cycle;Signal;HPM_P1;HPM_P2
2022/07/30 00:01:33;;;;;;;1999.90;999.90;;;20.80;99.90;;;;;;5029776;28;20862;-73
2022/07/30 00:04:00;;;;;;;1999.90;999.90;;;20.70;99.90;;;;;;5031405;28;20447;-73
2022/07/30 00:06:27;;;;;;;1999.90;999.90;;;20.70;99.90;;;;;;5031047;28;20485;-73
2022/07/30 00:08:53;;;;;;;1999.90;999.90;;;20.70;99.90;;;;;;5031978;28;20514;-73
2022/07/30 00:11:21;;;;;;;1999.90;999.90;;;20.70;99.90;;;;;;5031980;28;20505;-73
2022/07/30 00:13:48;;;;;;;1999.90;999.90;;;20.70;99.90;;;;;;5032131;28;20455;-73
2022/07/30 00:16:14;;;;;;;1999.90;999.90;;;20.60;99.90;;;;;;5031374;28;20517;-73
2022/07/30 00:18:41;;;;;;;1999.90;999.90;;;20.60;99.90;;;;;;5031841;28;20797;-73
2022/07/30 00:21:08;;;;;;;1999.90;999.90;;;20.50;99.90;;;;;;5031367;28;20447;-73
2022/07/30 00:23:35;;;;;;;1999.90;999.90;;;20.50;99.90;;;;;;5031771;28;20497;-73
2022/07/30 00:26:02;;;;;;;1999.90;999.90;;;20.60;99.90;;;;;;5031373;28;21059;-73
2022/07/30 00:28:30;;;;;;;1999.90;999.90;;;20.60;99.90;;;;;;5031904;28;20906;-73
2022/07/30 00:30:57;;;;;;;1999.90;999.90;;;20.60;99.90;;;;;;5031497;28;20478;-73
2022/07/30 00:33:23;;;;;;;1999.90;999.90;;;20.50;99.90;;;;;;5035068;28;20509;-72
2022/07/30 00:35:50;;;;;;;1999.90;999.90;;;20.50;99.90;;;;;;5034752;28;20462;-72
2022/07/30 00:38:16;;;;;;;1999.90;999.90;;;20.50;99.90;;;;;;5034959;28;20450;-73
2022/07/30 00:40:43;;;;;;;1999.90;999.90;;;20.50;99.90;;;;;;5034854;28;20455;-73
2022/07/30 00:43:14;;;;;;;1999.90;999.90;;;20.50;99.90;;;;;;5034765;28;20447;-73
2022/07/30 00:45:43;;;;;;;1999.90;999.90;;;20.50;99.90;;;;;;5034491;28;20478;-73
2022/07/30 00:48:10;;;;;;;1999.90;999.90;;;20.50;99.90;;;;;;5035344;28;20537;-72
2022/07/30 00:50:37;;;;;;;1999.90;999.90;;;20.50;99.90;;;;;;5035375;28;20455;-73
2022/07/30 00:53:04;;;;;;;1999.90;999.90;;;20.40;99.90;;;;;;5034867;28;20470;-73
2022/07/30 00:55:31;;;;;;;1999.90;999.90;;;20.40;99.90;;;;;;5034124;28;20472;-73
2022/07/30 00:57:57;;;;;;;1999.90;999.90;;;20.30;99.90;;;;;;5034648;28;20731;-73
2022/07/30 01:00:25;;;;;;;1999.90;999.90;;;20.20;99.90;;;;;;5034452;28;20447;-72
2022/07/30 01:02:53;;;;;;;1999.90;999.90;;;20.30;99.90;;;;;;5034617;28;20509;-73
2022/07/30 01:05:20;;;;;;;1999.90;999.90;;;20.20;99.90;;;;;;5033835;28;20944;-72
2022/07/30 01:07:47;;;;;;;1999.90;999.90;;;20.10;99.90;;;;;;5034278;28;20479;-73
2022/07/30 01:10:15;;;;;;;1999.90;999.90;;;20.00;99.90;;;;;;5034315;28;20482;-72
2022/07/30 01:12:43;;;;;;;1999.90;999.90;;;20.00;99.90;;;;;;5034732;28;20456;-72
2022/07/30 01:15:11;;;;;;;1999.90;999.90;;;19.90;99.90;;;;;;5033609;28;21017;-72
2022/07/30 01:17:38;;;;;;;1999.90;999.90;;;19.80;99.90;;;;;;5034515;28;20471;-72
2022/07/30 01:20:10;;;;;;;1999.90;999.90;;;19.80;99.90;;;;;;5034203;28;20480;-72
2022/07/30 01:22:47;;;;;;;1999.90;999.90;;;19.60;99.90;;;;;;5034071;28;20447;-71
2022/07/30 01:25:20;;;;;;;1999.90;999.90;;;19.50;99.90;;;;;;5033832;28;20480;-71
2022/07/30 01:27:51;;;;;;;1999.90;999.90;;;19.50;99.90;;;;;;5034274;28;20479;-72
2022/07/30 01:30:22;;;;;;;1999.90;999.90;;;19.40;99.90;;;;;;5034124;28;20458;-71
2022/07/30 01:32:50;;;;;;;1999.90;999.90;;;19.30;99.90;;;;;;5034478;28;20436;-71
2022/07/30 01:35:19;;;;;;;1999.90;999.90;;;19.30;99.90;;;;;;5033186;28;20455;-70
2022/07/30 01:37:47;;;;;;;1999.90;999.90;;;19.30;99.90;;;;;;5032365;28;20497;-71
2022/07/30 01:40:14;;;;;;;1999.90;999.90;;;19.10;99.90;;;;;;5032067;28;20497;-71
2022/07/30 01:42:43;;;;;;;1999.90;999.90;;;19.10;99.90;;;;;;5032138;28;21015;-72
2022/07/30 01:45:12;;;;;;;1999.90;999.90;;;19.00;99.90;;;;;;5031906;28;20451;-71
2022/07/30 01:47:40;;;;;;;1999.90;999.90;;;19.10;99.90;;;;;;5032130;28;20852;-71
2022/07/30 01:50:13;;;;;;;1999.90;999.90;;;19.20;99.90;;;;;;5031921;28;20467;-71
2022/07/30 01:52:41;;;;;;;1999.90;999.90;;;19.10;99.90;;;;;;5032585;28;20431;-71
2022/07/30 01:55:09;;;;;;;1999.90;999.90;;;19.20;99.90;;;;;;5033359;28;21017;-71
2022/07/30 01:57:38;;;;;;;1999.90;999.90;;;19.00;99.90;;;;;;5033724;28;20447;-71
2022/07/30 02:00:06;;;;;;;1999.90;999.90;;;18.90;99.90;;;;;;5034053;28;20485;-72
2022/07/30 02:02:37;;;;;;;1999.90;999.90;;;18.80;99.90;;;;;;5033487;28;20491;-71
2022/07/30 02:05:05;;;;;;;1999.90;999.90;;;18.80;99.90;;;;;;5033180;28;20475;-71
2022/07/30 02:07:38;;;;;;;1999.90;999.90;;;18.80;99.90;;;;;;5032729;28;20540;-72
2022/07/30 02:10:10;;;;;;;1999.90;999.90;;;18.70;99.90;;;;;;5032932;28;20447;-71
2022/07/30 02:12:42;;;;;;;1999.90;999.90;;;18.60;99.90;;;;;;5033103;28;20509;-71
2022/07/30 02:15:14;;;;;;;1999.90;999.90;;;18.60;99.90;;;;;;5032854;28;20450;-72
2022/07/30 02:17:48;;;;;;;1999.90;999.90;;;18.40;99.90;;;;;;5033398;28;20439;-71
2022/07/30 02:20:17;;;;;;;1999.90;999.90;;;18.30;99.90;;;;;;5033400;28;20447;-72
2022/07/30 02:22:46;;;;;;;1999.90;999.90;;;18.20;99.90;;;;;;5033594;28;20454;-72
2022/07/30 02:25:17;;;;;;;1999.90;999.90;;;18.20;99.90;;;;;;5032487;28;21003;-71
2022/07/30 02:27:47;;;;;;;1999.90;999.90;;;18.20;99.90;;;;;;5032846;28;20513;-71
2022/07/30 02:30:15;;;;;;;1999.90;999.90;;;18.20;99.90;;;;;;5033335;28;20447;-72
2022/07/30 02:32:44;;;;;;;1999.90;999.90;;;18.10;99.90;;;;;;5032783;28;20487;-73
2022/07/30 02:35:15;;;;;;;1999.90;999.90;;;18.00;99.90;;;;;;5032332;28;20471;-74
2022/07/30 02:37:43;;;;;;;1999.90;999.90;;;18.00;99.90;;;;;;5032473;28;20451;-74
2022/07/30 02:40:13;;;;;;;1999.90;999.90;;;17.90;99.90;;;;;;5032525;28;20466;-75
2022/07/30 02:42:42;;;;;;;1999.90;999.90;;;17.80;99.90;;;;;;5032352;28;20501;-74
2022/07/30 02:45:11;;;;;;;1999.90;999.90;;;17.80;99.90;;;;;;5032183;28;20451;-71
2022/07/30 02:47:39;;;;;;;1999.90;999.90;;;17.90;99.90;;;;;;5032144;28;20533;-71
2022/07/30 02:50:09;;;;;;;1999.90;999.90;;;17.90;99.90;;;;;;5032388;28;20471;-71
2022/07/30 02:52:37;;;;;;;1999.90;999.90;;;18.00;99.90;;;;;;5032360;28;20435;-71
2022/07/30 02:55:07;;;;;;;1999.90;999.90;;;17.90;99.90;;;;;;5031505;28;20501;-71
2022/07/30 02:57:34;;;;;;;1999.90;999.90;;;17.90;99.90;;;;;;5031846;28;20900;-72
2022/07/30 03:00:02;;;;;;;1999.90;999.90;;;17.90;99.90;;;;;;5031771;28;20451;-71
2022/07/30 03:02:28;;;;;;;1999.90;999.90;;;17.80;99.90;;;;;;5032152;28;20497;-71
2022/07/30 03:04:57;;;;;;;1999.90;999.90;;;17.70;99.90;;;;;;5031555;28;20998;-69
2022/07/30 03:07:26;;;;;;;1999.90;999.90;;;17.60;99.90;;;;;;5031855;28;20471;-70
2022/07/30 03:09:55;;;;;;;1999.90;999.90;;;17.60;99.90;;;;;;5031572;28;20518;-70
2022/07/30 03:12:23;;;;;;;1999.90;999.90;;;17.60;99.90;;;;;;5031607;28;20508;-70
2022/07/30 03:14:51;;;;;;;1999.90;999.90;;;17.60;99.90;;;;;;5031729;28;20451;-71
2022/07/30 03:17:19;;;;;;;1999.90;999.90;;;17.70;99.90;;;;;;5031977;28;20469;-69
2022/07/30 03:19:48;;;;;;;1999.90;999.90;;;17.80;99.90;;;;;;5031786;28;20924;-70
2022/07/30 03:22:17;;;;;;;1999.90;999.90;;;17.80;99.90;;;;;;5031943;28;20451;-70
2022/07/30 03:24:47;;;;;;;1999.90;999.90;;;17.80;99.90;;;;;;5031341;28;21014;-70
2022/07/30 03:27:15;;;;;;;1999.90;999.90;;;17.80;99.90;;;;;;5031792;28;20463;-70
2022/07/30 03:29:45;;;;;;;1999.90;999.90;;;17.80;99.90;;;;;;5031854;28;20475;-71
2022/07/30 03:32:12;;;;;;;1999.90;999.90;;;17.70;99.90;;;;;;5031620;28;20829;-70
2022/07/30 03:34:39;;;;;;;1999.90;999.90;;;17.80;99.90;;;;;;5031439;28;20486;-71
2022/07/30 03:37:06;;;;;;;1999.90;999.90;;;17.80;99.90;;;;;;5032005;28;20828;-70
2022/07/30 03:39:34;;;;;;;1999.90;999.90;;;17.80;99.90;;;;;;5031654;28;20443;-70
2022/07/30 03:42:03;;;;;;;1999.90;999.90;;;17.90;99.90;;;;;;5031585;28;20827;-70
2022/07/30 03:44:30;;;;;;;1999.90;999.90;;;17.90;99.90;;;;;;5031416;28;20457;-70
2022/07/30 03:46:59;;;;;;;1999.90;999.90;;;17.90;99.90;;;;;;5059536;23;20532;-69
2022/07/30 03:49:26;;;;;;;1999.90;999.90;;;17.80;99.90;;;;;;5012173;28;20479;-69
2022/07/30 03:51:53;;;;;;;1999.90;999.90;;;17.80;99.90;;;;;;5012353;28;20526;-70
2022/07/30 03:54:21;;;;;;;1999.90;999.90;;;17.80;99.90;;;;;;5012153;28;20463;-70
2022/07/30 03:56:47;;;;;;;1999.90;999.90;;;17.80;99.90;;;;;;5012119;28;20471;-71
2022/07/30 03:59:15;;;;;;;1999.90;999.90;;;17.70;99.90;;;;;;5011902;28;20942;-70
2022/07/30 04:01:42;;;;;;;1999.90;999.90;;;17.60;99.90;;;;;;5012269;28;20518;-69
2022/07/30 04:04:10;;;;;;;1999.90;999.90;;;17.50;99.90;;;;;;5012337;28;20444;-69
2022/07/30 04:06:39;;;;;;;1999.90;999.90;;;17.30;99.90;;;;;;5012642;28;20522;-69
2022/07/30 04:09:07;;;;;;;1999.90;999.90;;;17.30;99.90;;;;;;5015659;28;20562;-70
2022/07/30 04:11:33;;;;;;;1999.90;999.90;;;17.30;99.90;;;;;;5015628;28;20960;-70
2022/07/30 04:14:00;;;;;;;1999.90;999.90;;;17.20;99.90;;;;;;5015467;28;20447;-70
2022/07/30 04:16:36;;;;;;;1999.90;999.90;;;17.30;99.90;;;;;;5015413;28;21159;-71
2022/07/30 04:19:07;;;;;;;1999.90;999.90;;;17.30;99.90;;;;;;5015358;28;20933;-71
2022/07/30 04:21:35;;;;;;;1999.90;999.90;;;17.30;99.90;;;;;;5015563;28;20470;-70
2022/07/30 04:24:02;;;;;;;1999.90;999.90;;;17.40;99.90;;;;;;5015406;28;20614;-71
2022/07/30 04:26:31;;;;;;;1999.90;999.90;;;17.20;99.90;;;;;;5015113;28;20470;-70
2022/07/30 04:28:59;;;;;;;1999.90;999.90;;;17.10;99.90;;;;;;5014942;28;20490;-69
2022/07/30 04:31:26;;;;;;;1999.90;999.90;;;16.90;99.90;;;;;;5015355;28;20875;-71
2022/07/30 04:33:55;;;;;;;1999.90;999.90;;;16.70;99.90;;;;;;5015548;28;20456;-72
2022/07/30 04:36:21;;;;;;;1999.90;999.90;;;16.70;99.90;;;;;;5014838;28;20572;-72
2022/07/30 04:38:48;;;;;;;1999.90;999.90;;;16.70;99.90;;;;;;5015560;28;20444;-72
2022/07/30 04:41:14;;;;;;;1999.90;999.90;;;16.60;99.90;;;;;;5015075;28;20440;-73
2022/07/30 04:43:41;;;;;;;1999.90;999.90;;;16.70;99.90;;;;;;5015488;28;20507;-71
2022/07/30 04:46:08;;;;;;;1999.90;999.90;;;16.60;99.90;;;;;;5014875;28;20537;-73
2022/07/30 04:48:34;;;;;;;1999.90;999.90;;;16.60;99.90;;;;;;5015041;28;20972;-72
2022/07/30 04:51:09;;;;;;;1999.90;999.90;;;16.60;99.90;;;;;;5015020;28;20502;-71
2022/07/30 04:53:36;;;;;;;1999.90;999.90;;;16.70;99.90;;;;;;5015045;28;20806;-72
2022/07/30 04:56:05;;;;;;;1999.90;999.90;;;16.70;99.90;;;;;;5014623;28;20506;-68
2022/07/30 04:58:34;;;;;;;1999.90;999.90;;;16.90;99.90;;;;;;5015040;28;20440;-71
2022/07/30 05:01:02;;;;;;;1999.90;999.90;;;16.90;99.90;;;;;;5014894;28;20444;-70
2022/07/30 05:03:31;;;;;;;1999.90;999.90;;;17.00;99.90;;;;;;5014475;28;20498;-71
2022/07/30 05:05:58;;;;;;;1999.90;999.90;;;17.20;99.90;;;;;;5014617;28;20494;-71
2022/07/30 05:08:27;;;;;;;1999.90;999.90;;;17.20;99.90;;;;;;5013737;28;20953;-71
2022/07/30 05:10:54;;;;;;;1999.90;999.90;;;17.30;99.90;;;;;;5014625;28;20448;-71
2022/07/30 05:13:21;;;;;;;1999.90;999.90;;;17.30;99.90;;;;;;5014129;28;20451;-71
2022/07/30 05:15:48;;;;;;;1999.90;999.90;;;17.20;99.90;;;;;;5014431;28;20510;-72
2022/07/30 05:18:14;;;;;;;1999.90;999.90;;;17.30;99.90;;;;;;5013510;28;20448;-72
2022/07/30 05:20:41;;;;;;;1999.90;999.90;;;17.40;99.90;;;;;;5014599;28;20946;-70
2022/07/30 05:23:08;;;;;;;1999.90;999.90;;;17.50;99.90;;;;;;5014565;28;20448;-71
2022/07/30 05:25:36;;;;;;;1999.90;999.90;;;17.50;99.90;;;;;;5014916;28;20527;-72
2022/07/30 05:28:02;;;;;;;1999.90;999.90;;;17.60;99.90;;;;;;5014344;28;20475;-72
2022/07/30 05:30:29;;;;;;;1999.90;999.90;;;17.50;99.90;;;;;;5014723;28;20530;-72
2022/07/30 05:32:56;;;;;;;1999.90;999.90;;;17.50;99.90;;;;;;5014580;28;20837;-71
2022/07/30 05:35:22;;;;;;;1999.90;999.90;;;17.70;99.90;;;;;;5014153;28;20510;-69
2022/07/30 05:37:49;;;;;;;1999.90;999.90;;;17.80;99.90;;;;;;5014231;28;20472;-69
2022/07/30 05:40:16;;;;;;;1999.90;999.90;;;17.90;99.90;;;;;;5014709;28;20448;-70
2022/07/30 05:42:43;;;;;;;1999.90;999.90;;;17.90;99.90;;;;;;5014584;28;20566;-68
2022/07/30 05:45:10;;;;;;;1999.90;999.90;;;17.90;99.90;;;;;;5014005;28;20503;-69
2022/07/30 05:47:37;;;;;;;1999.90;999.90;;;17.90;99.90;;;;;;5014068;28;20480;-70
2022/07/30 05:50:04;;;;;;;1999.90;999.90;;;17.90;99.90;;;;;;5014385;28;20550;-70
2022/07/30 05:52:31;;;;;;;1999.90;999.90;;;17.80;99.90;;;;;;5014120;28;20448;-71
2022/07/30 05:54:57;;;;;;;1999.90;999.90;;;18.00;99.90;;;;;;5013805;28;20818;-69
2022/07/30 05:57:24;;;;;;;1999.90;999.90;;;18.10;99.90;;;;;;5013797;28;20534;-70
2022/07/30 05:59:52;;;;;;;1999.90;999.90;;;18.20;99.90;;;;;;5014041;28;20831;-71
2022/07/30 06:02:19;;;;;;;1999.90;999.90;;;18.20;99.90;;;;;;5013740;28;20452;-71
2022/07/30 06:04:45;;;;;;;1999.90;999.90;;;18.30;99.90;;;;;;5013617;28;20448;-70
2022/07/30 06:07:12;;;;;;;1999.90;999.90;;;18.40;99.90;;;;;;5013287;28;20848;-69
2022/07/30 06:09:38;;;;;;;1999.90;999.90;;;18.40;99.90;;;;;;5013539;28;20542;-70
2022/07/30 06:12:05;;;;;;;1999.90;999.90;;;18.40;99.90;;;;;;5013883;28;20456;-71
2022/07/30 06:14:32;;;;;;;1999.90;999.90;;;18.60;99.90;;;;;;5013414;28;20526;-70
2022/07/30 06:17:00;;;;;;;1999.90;999.90;;;18.40;99.90;;;;;;5013652;28;20468;-70
2022/07/30 06:19:26;;;;;;;1999.90;999.90;;;18.50;99.90;;;;;;5013471;28;20448;-69
2022/07/30 06:21:53;;;;;;;1999.90;999.90;;;18.40;99.90;;;;;;5013587;28;20823;-71
2022/07/30 06:24:20;;;;;;;1999.90;999.90;;;18.60;99.90;;;;;;5013141;28;20448;-69
2022/07/30 06:26:46;;;;;;;1999.90;999.90;;;18.60;99.90;;;;;;5013109;28;20468;-71
2022/07/30 06:29:13;;;;;;;1999.90;999.90;;;18.70;99.90;;;;;;5012342;28;21013;-71
2022/07/30 06:31:40;;;;;;;1999.90;999.90;;;18.80;99.90;;;;;;5013438;28;20443;-70
2022/07/30 06:34:08;;;;;;;1999.90;999.90;;;18.80;99.90;;;;;;5013143;28;20495;-71
2022/07/30 06:36:35;;;;;;;1999.90;999.90;;;18.80;99.90;;;;;;5012504;28;20465;-71
2022/07/30 06:39:02;;;;;;;1999.90;999.90;;;18.90;99.90;;;;;;5012668;28;20448;-70
2022/07/30 06:41:29;;;;;;;1999.90;999.90;;;18.90;99.90;;;;;;5012999;28;20502;-70
2022/07/30 06:43:56;;;;;;;1999.90;999.90;;;19.10;99.90;;;;;;5012642;28;21007;-70
2022/07/30 06:46:22;;;;;;;1999.90;999.90;;;19.20;99.90;;;;;;5012119;28;20476;-71
2022/07/30 06:48:49;;;;;;;1999.90;999.90;;;19.30;99.90;;;;;;5012555;28;20499;-71
2022/07/30 06:51:17;;;;;;;1999.90;999.90;;;19.40;99.90;;;;;;5012903;28;20448;-71
2022/07/30 06:53:44;;;;;;;1999.90;999.90;;;19.50;99.90;;;;;;5012602;28;20452;-70
2022/07/30 06:56:12;;;;;;;1999.90;999.90;;;19.30;99.90;;;;;;5012249;28;20468;-70
2022/07/30 06:58:38;;;;;;;1999.90;999.90;;;19.30;99.90;;;;;;5012969;28;20454;-70
2022/07/30 07:01:05;;;;;;;1999.90;999.90;;;19.30;99.90;;;;;;5012775;28;20444;-70
2022/07/30 07:03:32;;;;;;;1999.90;999.90;;;19.30;99.90;;;;;;5012674;28;20807;-70
2022/07/30 07:05:58;;;;;;;1999.90;999.90;;;19.20;99.90;;;;;;5012297;28;20526;-69
2022/07/30 07:08:26;;;;;;;1999.90;999.90;;;19.20;99.90;;;;;;5012009;28;20447;-69
2022/07/30 07:10:53;;;;;;;1999.90;999.90;;;19.20;99.90;;;;;;5012624;28;20484;-70
2022/07/30 07:13:19;;;;;;;1999.90;999.90;;;19.20;99.90;;;;;;5012534;28;20777;-71
2022/07/30 07:15:46;;;;;;;1999.90;999.90;;;19.30;99.90;;;;;;5012187;28;20447;-69
2022/07/30 07:18:14;;;;;;;1999.90;999.90;;;19.40;99.90;;;;;;5012349;28;20961;-70
2022/07/30 07:20:42;;;;;;;1999.90;999.90;;;19.40;99.90;;;;;;5012392;28;20476;-71
2022/07/30 07:23:08;;;;;;;1999.90;999.90;;;19.40;99.90;;;;;;5012603;28;20455;-71
2022/07/30 07:25:36;;;;;;;1999.90;999.90;;;19.50;99.90;;;;;;5011943;28;20452;-71
2022/07/30 07:28:03;;;;;;;1999.90;999.90;;;19.50;99.90;;;;;;5012233;28;20555;-71
2022/07/30 07:30:30;;;;;;;1999.90;999.90;;;19.60;99.90;;;;;;5012025;28;20483;-70
2022/07/30 07:32:56;;;;;;;1999.90;999.90;;;19.70;99.90;;;;;;5012106;28;20789;-68
2022/07/30 07:35:23;;;;;;;1999.90;999.90;;;19.70;99.90;;;;;;5011968;28;20447;-70
2022/07/30 07:37:50;;;;;;;1999.90;999.90;;;19.70;99.90;;;;;;5012539;28;20499;-71
2022/07/30 07:40:16;;;;;;;1999.90;999.90;;;19.70;99.90;;;;;;5012852;28;20448;-70
2022/07/30 07:42:44;;;;;;;1999.90;999.90;;;19.80;99.90;;;;;;5016459;28;20494;-69
2022/07/30 07:45:12;;;;;;;1999.90;999.90;;;19.90;99.90;;;;;;5016351;28;20514;-72
2022/07/30 07:47:44;;;;;;;1999.90;999.90;;;20.00;99.90;;;;;;5015773;28;20479;-70
2022/07/30 07:50:10;;;;;;;1999.90;999.90;;;20.00;99.90;;;;;;5016273;28;20488;-70
2022/07/30 07:52:37;;;;;;;1999.90;999.90;;;19.80;99.90;;;;;;5016165;28;20448;-70
2022/07/30 07:55:04;;;;;;;1999.90;999.90;;;19.80;99.90;;;;;;5015734;28;20522;-71
2022/07/30 07:57:30;;;;;;;1999.90;999.90;;;19.80;99.90;;;;;;5016213;28;20892;-71
2022/07/30 07:59:58;;;;;;;1999.90;999.90;;;19.70;99.90;;;;;;5015839;28;20447;-70
2022/07/30 08:02:25;;;;;;;1999.90;999.90;;;19.80;99.90;;;;;;5015640;28;20455;-71
2022/07/30 08:04:51;;;;;;;1999.90;999.90;;;19.80;99.90;;;;;;5015481;28;20452;-70
2022/07/30 08:07:18;;;;;;;1999.90;999.90;;;19.80;99.90;;;;;;5015291;28;20893;-71
2022/07/30 08:09:45;;;;;;;1999.90;999.90;;;19.80;99.90;;;;;;5015897;28;20487;-71
2022/07/30 08:12:11;;;;;;;1999.90;999.90;;;19.90;99.90;;;;;;5015832;28;20513;-71
2022/07/30 08:14:38;;;;;;;1999.90;999.90;;;19.80;99.90;;;;;;5015133;28;20447;-69
2022/07/30 08:17:06;;;;;;;1999.90;999.90;;;19.90;99.90;;;;;;5015678;28;20476;-71
2022/07/30 08:19:33;;;;;;;1999.90;999.90;;;20.00;99.90;;;;;;5015442;28;20443;-71
2022/07/30 08:21:59;;;;;;;1999.90;999.90;;;20.00;99.90;;;;;;5015557;28;20444;-71
2022/07/30 08:24:26;;;;;;;1999.90;999.90;;;20.10;99.90;;;;;;5015136;28;20830;-71
2022/07/30 08:26:53;;;;;;;1999.90;999.90;;;20.10;99.90;;;;;;5015025;28;20834;-71
2022/07/30 08:29:19;;;;;;;1999.90;999.90;;;20.10;99.90;;;;;;5015372;28;20444;-71
2022/07/30 08:31:46;;;;;;;1999.90;999.90;;;20.20;99.90;;;;;;5015316;28;20447;-70
2022/07/30 08:34:14;;;;;;;1999.90;999.90;;;20.30;99.90;;;;;;5015305;28;20456;-69
2022/07/30 08:36:41;;;;;;;1999.90;999.90;;;20.40;99.90;;;;;;5015134;28;20472;-70
2022/07/30 08:39:08;;;;;;;1999.90;999.90;;;20.50;99.90;;;;;;5015819;28;20506;-70
2022/07/30 08:41:36;;;;;;;1999.90;999.90;;;20.60;99.90;;;;;;5015597;28;20450;-71
2022/07/30 08:44:03;;;;;;;1999.90;999.90;;;20.70;99.90;;;;;;5015737;28;20448;-71
2022/07/30 08:46:33;;;;;;;1999.90;999.90;;;20.70;99.90;;;;;;5014809;28;20502;-71
2022/07/30 08:49:00;;;;;;;1999.90;999.90;;;20.90;99.90;;;;;;5014811;28;20866;-71
2022/07/30 08:51:28;;;;;;;1999.90;999.90;;;21.00;99.90;;;;;;5014771;28;20508;-70
2022/07/30 08:53:56;;;;;;;1999.90;999.90;;;21.20;99.90;;;;;;5014677;28;20506;-69
2022/07/30 08:56:23;;;;;;;1999.90;999.90;;;21.10;99.90;;;;;;5015011;28;20472;-71
2022/07/30 08:58:50;;;;;;;1999.90;999.90;;;21.00;99.90;;;;;;5015086;28;20954;-71
2022/07/30 09:01:17;;;;;;;1999.90;999.90;;;21.10;99.90;;;;;;5015369;28;20452;-69
2022/07/30 09:03:44;;;;;;;1999.90;999.90;;;20.90;99.90;;;;;;5015066;28;20520;-70
2022/07/30 09:06:12;;;;;;;1999.90;999.90;;;20.80;99.90;;;;;;5014033;28;20507;-70
2022/07/30 09:08:40;;;;;;;1999.90;999.90;;;20.70;99.90;;;;;;5014872;28;20964;-70
2022/07/30 09:11:07;;;;;;;1999.90;999.90;;;20.70;99.90;;;;;;5015038;28;20513;-70
2022/07/30 09:13:36;;;;;;;1999.90;999.90;;;20.70;99.90;;;;;;5014740;28;20448;-69
2022/07/30 09:16:04;;;;;;;1999.90;999.90;;;20.70;99.90;;;;;;5015052;28;20464;-69
2022/07/30 09:18:32;;;;;;;1999.90;999.90;;;20.80;99.90;;;;;;5014960;28;20452;-70
2022/07/30 09:21:01;;;;;;;1999.90;999.90;;;20.90;99.90;;;;;;5014834;28;20483;-70
2022/07/30 09:23:28;;;;;;;1999.90;999.90;;;21.00;99.90;;;;;;5015098;28;20583;-70
2022/07/30 09:25:59;;;;;;;1999.90;999.90;;;21.10;99.90;;;;;;5014341;28;20471;-72
2022/07/30 09:28:30;;;;;;;1999.90;999.90;;;21.20;99.90;;;;;;5014842;28;21133;-73
2022/07/30 09:30:57;;;;;;;1999.90;999.90;;;21.40;99.90;;;;;;5015026;28;20566;-73
2022/07/30 09:33:36;;;;;;;1999.90;999.90;;;21.40;99.90;;;;;;5018940;28;20883;-73
2022/07/30 09:36:04;;;;;;;1999.90;999.90;;;21.60;99.90;;;;;;5019785;28;20817;-73
2022/07/30 09:38:43;;;;;;;1999.90;999.90;;;21.60;99.90;;;;;;5020489;28;20464;-73
2022/07/30 09:41:11;;;;;;;1999.90;999.90;;;22.10;99.90;;;;;;5021392;28;20432;-71
2022/07/30 09:43:45;;;;;;;1999.90;999.90;;;22.20;99.90;;;;;;5015798;28;20454;-72
2022/07/30 09:48:45;;;;;;;1999.90;999.90;;;22.30;99.90;;;;;;5042900;28;20470;-69
2022/07/30 09:51:12;;;;;;;1999.90;999.90;;;22.10;99.90;;;;;;5033628;28;20521;-67
2022/07/30 09:53:54;;;;;;;1999.90;999.90;;;22.40;99.90;;;;;;5033542;28;20443;-71
2022/07/30 09:56:26;;;;;;;1999.90;999.90;;;22.30;99.90;;;;;;5033008;28;20443;-69
2022/07/30 09:58:52;;;;;;;1999.90;999.90;;;22.30;99.90;;;;;;5032989;28;20443;-69
2022/07/30 10:01:19;;;;;;;1999.90;999.90;;;22.60;99.90;;;;;;5033282;28;20498;-69
2022/07/30 10:03:46;;;;;;;1999.90;999.90;;;22.70;99.90;;;;;;5033080;28;20936;-69
2022/07/30 10:06:13;;;;;;;1999.90;999.90;;;22.60;99.90;;;;;;5032445;28;20447;-68
2022/07/30 10:08:41;;;;;;;1999.90;999.90;;;22.50;99.90;;;;;;5033320;28;20447;-69
2022/07/30 10:11:11;;;;;;;1999.90;999.90;;;22.50;99.90;;;;;;5033158;28;20479;-69
2022/07/30 10:13:39;;;;;;;1999.90;999.90;;;22.50;99.90;;;;;;5033030;28;20454;-68
2022/07/30 10:16:06;;;;;;;1999.90;999.90;;;22.50;99.90;;;;;;5033161;28;20447;-66
2022/07/30 10:18:33;;;;;;;1999.90;999.90;;;22.50;99.90;;;;;;5033020;28;20467;-69
2022/07/30 10:21:01;;;;;;;1999.90;999.90;;;22.50;99.90;;;;;;5032845;28;20965;-68
2022/07/30 10:23:29;;;;;;;1999.90;999.90;;;22.40;99.90;;;;;;5032887;28;20474;-69
2022/07/30 10:25:56;;;;;;;1999.90;999.90;;;22.50;99.90;;;;;;5032522;28;20443;-69
2022/07/30 10:28:24;;;;;;;1999.90;999.90;;;22.30;99.90;;;;;;5032655;28;20467;-68
2022/07/30 10:30:54;;;;;;;1999.90;999.90;;;22.30;99.90;;;;;;5032950;28;20475;-69
2022/07/30 10:33:22;;;;;;;1999.90;999.90;;;22.40;99.90;;;;;;5032596;28;20443;-69
2022/07/30 10:35:49;;;;;;;1999.90;999.90;;;22.20;99.90;;;;;;5032359;28;20981;-69
2022/07/30 10:38:18;;;;;;;1999.90;999.90;;;22.20;99.90;;;;;;5032732;28;20497;-66
2022/07/30 10:40:50;;;;;;;1999.90;999.90;;;22.20;99.90;;;;;;5032661;28;20440;-69
2022/07/30 10:43:50;;;;;;;1999.90;999.90;;;22.00;99.90;;;;;;5032491;28;20447;-71
2022/07/30 10:46:29;;;;;;;1999.90;999.90;;;22.00;99.90;;;;;;5034068;28;20489;-69
2022/07/30 10:48:56;;;;;;;1999.90;999.90;;;22.10;99.90;;;;;;5033215;28;20423;-69
2022/07/30 10:51:41;;;;;;;1999.90;999.90;;;21.90;99.90;;;;;;5032499;28;20486;-67
2022/07/30 10:54:44;;;;;;;1999.90;999.90;;;22.00;99.90;;;;;;5032370;28;20631;-69
2022/07/30 10:57:13;;;;;;;1999.90;999.90;;;22.30;99.90;;;;;;5032210;28;20473;-67
2022/07/30 11:00:09;;;;;;;1999.90;999.90;;;22.40;99.90;;;;;;5032076;28;20497;-69
2022/07/30 11:02:37;;;;;;;1999.90;999.90;;;22.40;99.90;;;;;;5032138;28;20457;-67
2022/07/30 11:05:22;;;;;;;1999.90;999.90;;;22.30;99.90;;;;;;5031863;28;21025;-70
2022/07/30 11:07:49;;;;;;;1999.90;999.90;;;22.20;99.90;;;;;;5031590;28;20462;-69
2022/07/30 11:10:34;;;;;;;1999.90;999.90;;;22.20;99.90;;;;;;5032217;28;20451;-69
2022/07/30 11:13:01;;;;;;;1999.90;999.90;;;22.00;99.90;;;;;;5032556;28;20427;-69
2022/07/30 11:15:53;;;;;;;1999.90;999.90;;;21.90;99.90;;;;;;5031465;28;20443;-69
2022/07/30 11:18:22;;;;;;;1999.90;999.90;;;21.80;99.90;;;;;;5032047;28;20467;-66
2022/07/30 11:21:15;;;;;;;1999.90;999.90;;;21.90;99.90;;;;;;5031732;28;20868;-67
2022/07/30 11:23:43;;;;;;;1999.90;999.90;;;22.10;99.90;;;;;;5032077;28;20534;-67
2022/07/30 11:26:09;;;;;;;1999.90;999.90;;;22.10;99.90;;;;;;5031473;28;20482;-68
2022/07/30 11:28:39;;;;;;;1999.90;999.90;;;22.30;99.90;;;;;;5031862;28;20811;-69
2022/07/30 11:31:31;;;;;;;1999.90;999.90;;;22.20;99.90;;;;;;5031764;28;20482;-70
2022/07/30 11:34:29;;;;;;;1999.90;999.90;;;22.30;99.90;;;;;;5032047;28;20931;-69
2022/07/30 11:37:03;;;;;;;1999.90;999.90;;;22.40;99.90;;;;;;5031685;28;20471;-65
2022/07/30 11:40:03;;;;;;;1999.90;999.90;;;22.20;99.90;;;;;;5031317;28;20454;-69
2022/07/30 11:42:31;;;;;;;1999.90;999.90;;;22.40;99.90;;;;;;5032036;28;20439;-66
2022/07/30 11:45:31;;;;;;;1999.90;999.90;;;22.60;99.90;;;;;;5031477;28;20997;-66
2022/07/30 11:48:02;;;;;;;1999.90;999.90;;;22.60;99.90;;;;;;5031720;28;20843;-69
2022/07/30 11:50:33;;;;;;;1999.90;999.90;;;22.70;99.90;;;;;;5032005;28;20443;-69
2022/07/30 11:53:01;;;;;;;1999.90;999.90;;;22.80;99.90;;;;;;5032228;28;20905;-69
2022/07/30 11:55:31;;;;;;;1999.90;999.90;;;22.80;99.90;;;;;;5031844;28;20467;-70
2022/07/30 11:57:59;;;;;;;1999.90;999.90;;;22.80;99.90;;;;;;5031605;28;20502;-70
2022/07/30 12:00:34;;;;;;;1999.90;999.90;;;23.10;99.90;;;;;;5031454;28;20470;-71
2022/07/30 12:03:00;;;;;;;1999.90;999.90;;;22.90;99.90;;;;;;5031693;28;20497;-70
2022/07/30 12:05:27;;;;;;;1999.90;999.90;;;22.40;99.90;;;;;;5031035;28;20494;-70
2022/07/30 12:07:58;;;;;;;1999.90;999.90;;;22.60;99.90;;;;;;5031397;28;20536;-69
2022/07/30 12:10:25;;;;;;;1999.90;999.90;;;22.90;99.90;;;;;;5032205;28;20887;-69